createdAt,value
2017-06-14T00:00:20.913Z,20.30
2017-06-14T00:02:48.572Z,19.20
2017-06-14T00:05:30.523Z,22.57
2017-06-14T00:08:13.197Z,16.70
2017-06-14T00:10:55.380Z,20.80
2017-06-14T00:13:37.632Z,18.83
2017-06-14T00:16:19.893Z,18.33
2017-06-14T00:19:03.041Z,16.97
2017-06-14T00:21:32.624Z,19.90
2017-06-14T00:24:14.936Z,18.73
2017-06-14T00:26:42.697Z,18.50
2017-06-14T00:29:11.054Z,18.00
2017-06-14T00:31:38.840Z,18.17
2017-06-14T00:34:06.707Z,19.57
2017-06-14T00:36:34.828Z,18.90
2017-06-14T00:39:02.541Z,16.97
2017-06-14T00:41:30.691Z,15.80
2017-06-14T00:43:59.285Z,18.70
2017-06-14T00:46:27.144Z,16.53
2017-06-14T00:48:54.936Z,20.27
2017-06-14T00:51:22.795Z,16.60
2017-06-14T00:53:50.541Z,14.87
2017-06-14T00:56:19.158Z,19.77
2017-06-14T00:58:47.094Z,15.83
2017-06-14T01:01:14.959Z,19.27
2017-06-14T01:03:43.440Z,15.83
2017-06-14T01:06:11.229Z,18.30
2017-06-14T01:08:39.096Z,17.83
2017-06-14T01:11:06.960Z,17.53
2017-06-14T01:13:34.906Z,17.23
2017-06-14T01:16:02.695Z,18.83
2017-06-14T01:18:30.354Z,16.50
2017-06-14T01:20:58.563Z,17.70
2017-06-14T01:23:26.561Z,17.17
2017-06-14T01:25:54.576Z,18.67
2017-06-14T01:28:22.543Z,14.03
2017-06-14T01:30:52.459Z,17.10
2017-06-14T01:33:21.031Z,17.77
2017-06-14T01:35:48.779Z,19.33
2017-06-14T01:38:16.424Z,15.57
2017-06-14T01:40:44.308Z,20.77
2017-06-14T01:43:12.174Z,19.27
2017-06-14T01:45:40.450Z,18.43
2017-06-14T01:48:08.569Z,18.80
2017-06-14T01:50:36.389Z,16.00
2017-06-14T01:53:05.005Z,16.43
2017-06-14T01:55:32.737Z,15.93
2017-06-14T01:58:00.619Z,14.73
2017-06-14T02:00:29.462Z,15.93
2017-06-14T02:02:57.480Z,14.37
2017-06-14T02:05:25.144Z,15.20
2017-06-14T02:07:52.843Z,14.60
2017-06-14T02:10:20.672Z,16.67
2017-06-14T02:12:48.540Z,18.90
2017-06-14T02:15:16.284Z,17.67
2017-06-14T02:17:44.766Z,13.83
2017-06-14T02:20:12.632Z,13.93
2017-06-14T02:22:41.143Z,15.33
2017-06-14T02:25:09.923Z,23.07
2017-06-14T02:27:37.870Z,22.13
2017-06-14T02:30:06.147Z,15.87
2017-06-14T02:32:34.014Z,12.90
2017-06-14T02:35:04.596Z,15.10
2017-06-14T02:37:32.668Z,13.83
2017-06-14T02:40:15.065Z,15.33
2017-06-14T02:42:57.269Z,19.53
2017-06-14T02:45:39.636Z,17.20
2017-06-14T02:48:21.919Z,13.90
2017-06-14T02:51:04.277Z,15.13
2017-06-14T02:53:46.537Z,28.53
2017-06-14T02:56:29.270Z,32.87
2017-06-14T02:59:11.652Z,54.78
2017-06-14T03:01:40.005Z,67.67
2017-06-14T03:04:22.311Z,27.87
2017-06-14T03:07:04.961Z,44.88
2017-06-14T03:09:47.077Z,38.42
2017-06-14T03:12:20.071Z,38.27
2017-06-14T03:15:02.387Z,30.00
2017-06-14T03:17:45.023Z,35.28
2017-06-14T03:20:21.907Z,32.60
2017-06-14T03:22:49.749Z,30.92
2017-06-14T03:25:17.948Z,27.95
2017-06-14T03:27:45.845Z,27.50
2017-06-14T03:30:13.644Z,29.02
2017-06-14T03:32:41.594Z,29.12
2017-06-14T03:35:09.461Z,25.85
2017-06-14T03:37:37.247Z,39.90
2017-06-14T03:40:05.331Z,27.65
2017-06-14T03:42:33.024Z,29.08
2017-06-14T03:45:00.853Z,29.30
2017-06-14T03:47:28.938Z,32.17
2017-06-14T03:49:56.587Z,25.37
2017-06-14T03:52:24.321Z,30.88
2017-06-14T03:54:53.416Z,25.15
2017-06-14T03:57:25.175Z,29.05
2017-06-14T03:59:53.167Z,27.33
2017-06-14T04:02:22.872Z,25.77
2017-06-14T04:04:52.324Z,31.23
2017-06-14T04:07:25.736Z,32.13
2017-06-14T04:09:53.423Z,27.50
2017-06-14T04:12:21.547Z,30.62
2017-06-14T04:14:49.460Z,16.73
2017-06-14T04:17:17.941Z,20.33
2017-06-14T04:19:45.603Z,19.57
2017-06-14T04:22:13.879Z,19.93
2017-06-14T04:24:41.672Z,18.60
2017-06-14T04:27:10.657Z,17.00
2017-06-14T04:29:38.503Z,16.83
2017-06-14T04:32:07.221Z,14.17
2017-06-14T04:34:34.860Z,16.03
2017-06-14T04:37:06.625Z,14.87
2017-06-14T04:39:34.372Z,13.27
2017-06-14T04:42:02.361Z,11.93
2017-06-14T04:44:31.162Z,11.63
2017-06-14T04:46:59.593Z,13.57
2017-06-14T04:49:27.392Z,13.20
2017-06-14T04:51:55.497Z,11.33
2017-06-14T04:54:23.823Z,12.60
2017-06-14T04:56:51.941Z,12.20
2017-06-14T04:59:19.680Z,14.30
2017-06-14T05:01:47.340Z,13.57
2017-06-14T05:04:15.036Z,16.77
2017-06-14T05:06:42.953Z,11.23
2017-06-14T05:09:10.737Z,12.97
2017-06-14T05:11:38.696Z,12.20
2017-06-14T05:14:07.196Z,10.57
2017-06-14T05:16:35.033Z,10.83
2017-06-14T05:19:02.921Z,15.77
2017-06-14T05:21:30.569Z,17.83
2017-06-14T05:23:58.204Z,13.50
2017-06-14T05:26:25.908Z,12.57
2017-06-14T05:28:54.860Z,14.87
2017-06-14T05:31:22.643Z,12.20
2017-06-14T05:33:51.291Z,11.90
2017-06-14T05:36:19.972Z,13.93
2017-06-14T05:38:47.808Z,11.00
2017-06-14T05:41:15.748Z,11.90
2017-06-14T05:43:43.549Z,12.50
2017-06-14T05:46:11.380Z,9.80
2017-06-14T05:48:39.249Z,10.30
2017-06-14T05:51:07.112Z,10.83
2017-06-14T05:53:34.979Z,12.03
2017-06-14T05:56:03.577Z,12.37
2017-06-14T05:58:31.330Z,9.27
2017-06-14T06:00:59.124Z,11.13
2017-06-14T06:03:27.062Z,9.67
2017-06-14T06:05:54.866Z,9.20
2017-06-14T06:08:22.794Z,9.80
2017-06-14T06:10:50.458Z,10.17
2017-06-14T06:13:18.467Z,10.20
2017-06-14T06:15:46.308Z,10.23
2017-06-14T06:18:14.176Z,8.13
2017-06-14T06:20:41.922Z,8.40
2017-06-14T06:23:09.789Z,8.87
2017-06-14T06:25:37.656Z,13.77
2017-06-14T06:28:05.781Z,7.37
2017-06-14T06:30:34.123Z,8.80
2017-06-14T06:33:01.772Z,12.33
2017-06-14T06:35:30.351Z,10.20
2017-06-14T06:37:58.730Z,10.20
2017-06-14T06:40:26.617Z,13.03
2017-06-14T06:42:54.362Z,12.57
2017-06-14T06:45:22.194Z,8.80
2017-06-14T06:47:50.095Z,12.80
2017-06-14T06:50:17.962Z,9.80
2017-06-14T06:52:45.745Z,10.93
2017-06-14T06:55:13.838Z,8.80
2017-06-14T06:57:41.907Z,6.43
2017-06-14T07:00:10.100Z,8.20
2017-06-14T07:02:37.916Z,6.43
2017-06-14T07:05:05.691Z,8.80
2017-06-14T07:07:33.585Z,5.93
2017-06-14T07:10:01.919Z,7.90
2017-06-14T07:12:30.401Z,7.03
2017-06-14T07:14:58.185Z,7.80
2017-06-14T07:17:26.265Z,6.20
2017-06-14T07:19:53.918Z,7.33
2017-06-14T07:22:22.369Z,8.30
2017-06-14T07:24:50.045Z,7.40
2017-06-14T07:27:17.720Z,7.00
2017-06-14T07:29:45.570Z,6.23
2017-06-14T07:32:13.436Z,8.63
2017-06-14T07:34:41.508Z,6.97
2017-06-14T07:37:10.471Z,5.10
2017-06-14T07:39:38.389Z,10.03
2017-06-14T07:42:06.221Z,8.80
2017-06-14T07:44:34.616Z,6.83
2017-06-14T07:47:02.600Z,6.43
2017-06-14T07:49:30.385Z,7.70
2017-06-14T07:51:58.214Z,7.60
2017-06-14T07:54:26.285Z,7.27
2017-06-14T07:56:55.486Z,5.20
2017-06-14T07:59:23.247Z,7.17
2017-06-14T08:01:51.032Z,5.43
2017-06-14T08:04:18.713Z,4.80
2017-06-14T08:06:46.641Z,6.53
2017-06-14T08:09:14.516Z,5.30
2017-06-14T08:11:42.802Z,6.03
2017-06-14T08:14:11.387Z,3.90
2017-06-14T08:16:39.257Z,4.23
2017-06-14T08:19:06.917Z,4.47
2017-06-14T08:21:34.867Z,3.70
2017-06-14T08:24:02.647Z,3.80
2017-06-14T08:26:30.516Z,4.50
2017-06-14T08:28:58.461Z,4.00
2017-06-14T08:31:26.334Z,6.57
2017-06-14T08:33:54.117Z,4.47
2017-06-14T08:36:22.397Z,3.40
2017-06-14T08:38:50.037Z,3.10
2017-06-14T08:41:17.906Z,4.23
2017-06-14T08:43:45.684Z,4.27
2017-06-14T08:46:13.431Z,7.83
2017-06-14T08:48:41.225Z,5.23
2017-06-14T08:51:10.129Z,6.63
2017-06-14T08:53:37.852Z,2.90
2017-06-14T08:56:05.528Z,4.80
2017-06-14T08:58:33.397Z,3.10
2017-06-14T09:01:01.233Z,2.70
2017-06-14T09:03:29.215Z,3.00
2017-06-14T09:05:57.000Z,3.73
2017-06-14T09:08:25.341Z,7.90
2017-06-14T09:10:53.225Z,2.60
2017-06-14T09:13:21.097Z,3.40
2017-06-14T09:15:48.958Z,4.83
2017-06-14T09:18:17.413Z,4.73
2017-06-14T09:20:45.461Z,3.97
2017-06-14T09:23:13.150Z,4.40
2017-06-14T09:25:41.150Z,3.43
2017-06-14T09:28:09.118Z,4.17
2017-06-14T09:30:37.712Z,2.80
2017-06-14T09:33:05.372Z,3.80
2017-06-14T09:35:33.240Z,5.30
2017-06-14T09:38:01.217Z,3.80
2017-06-14T09:40:28.972Z,4.40
2017-06-14T09:42:56.724Z,5.70
2017-06-14T09:45:24.588Z,3.97
2017-06-14T09:47:52.596Z,3.50
2017-06-14T09:50:20.692Z,3.00
2017-06-14T09:52:49.310Z,3.43
2017-06-14T09:55:17.187Z,3.53
2017-06-14T09:57:45.500Z,2.90
2017-06-14T10:00:14.041Z,3.10
2017-06-14T10:02:41.824Z,3.00
2017-06-14T10:05:09.569Z,10.90
2017-06-14T10:07:37.352Z,3.17
2017-06-14T10:10:05.001Z,2.90
2017-06-14T10:12:32.880Z,3.67
2017-06-14T10:15:00.515Z,2.67
2017-06-14T10:17:29.050Z,3.20
2017-06-14T10:19:56.901Z,4.63
2017-06-14T10:22:24.756Z,2.73
2017-06-14T10:24:52.421Z,3.50
2017-06-14T10:27:20.290Z,3.40
2017-06-14T10:29:48.152Z,5.53
2017-06-14T10:32:16.390Z,4.10
2017-06-14T10:34:44.384Z,6.30
2017-06-14T10:37:12.248Z,5.47
2017-06-14T10:39:39.940Z,6.03
2017-06-14T10:42:08.595Z,5.97
2017-06-14T10:44:36.377Z,4.40
2017-06-14T10:47:04.003Z,6.67
2017-06-14T10:49:32.604Z,4.50
2017-06-14T10:52:00.390Z,6.17
2017-06-14T10:54:28.321Z,5.77
2017-06-14T10:56:56.330Z,5.83
2017-06-14T10:59:23.972Z,8.00
2017-06-14T11:01:51.937Z,5.03
2017-06-14T11:04:19.720Z,5.63
2017-06-14T11:06:47.408Z,6.10
2017-06-14T11:09:15.848Z,4.87
2017-06-14T11:11:43.711Z,4.70
2017-06-14T11:14:11.344Z,6.03
2017-06-14T11:16:39.240Z,5.63
2017-06-14T11:19:07.061Z,11.03
2017-06-14T11:21:34.756Z,13.17
2017-06-14T11:24:03.249Z,5.83
2017-06-14T11:26:30.940Z,5.63
2017-06-14T11:28:59.336Z,6.00
2017-06-14T11:31:27.370Z,7.53
2017-06-14T11:33:55.144Z,5.20
2017-06-14T11:36:23.269Z,7.73
2017-06-14T11:38:51.426Z,5.20
2017-06-14T11:41:19.770Z,12.13
2017-06-14T11:43:47.498Z,10.20
2017-06-14T11:46:15.997Z,7.10
2017-06-14T11:48:44.468Z,8.10
2017-06-14T11:51:12.259Z,6.63
2017-06-14T11:53:40.367Z,5.63
2017-06-14T11:56:08.096Z,5.90
2017-06-14T11:58:36.047Z,8.03
2017-06-14T12:01:04.352Z,6.30
2017-06-14T12:03:32.190Z,5.40
2017-06-14T12:06:00.859Z,5.50
2017-06-14T12:08:28.657Z,7.10
2017-06-14T12:10:56.321Z,6.73
2017-06-14T12:13:24.643Z,6.37
2017-06-14T12:15:53.069Z,13.27
2017-06-14T12:18:20.943Z,6.37
2017-06-14T12:20:48.690Z,5.73
2017-06-14T12:23:16.472Z,7.07
2017-06-14T12:25:44.236Z,7.67
2017-06-14T12:28:11.983Z,5.10
2017-06-14T12:30:40.332Z,6.10
2017-06-14T12:33:08.127Z,9.23
2017-06-14T12:35:35.992Z,9.23
2017-06-14T12:38:03.621Z,5.93
2017-06-14T12:40:31.441Z,5.60
2017-06-14T12:42:59.104Z,6.77
2017-06-14T12:45:26.969Z,5.70
2017-06-14T12:47:54.628Z,5.60
2017-06-14T12:50:22.496Z,7.73
2017-06-14T12:52:50.160Z,6.57
2017-06-14T12:55:18.390Z,7.63
2017-06-14T12:57:46.179Z,8.50
2017-06-14T13:00:14.661Z,7.93
2017-06-14T13:02:42.444Z,5.43
2017-06-14T13:05:10.312Z,6.80
2017-06-14T13:07:37.974Z,6.17
2017-06-14T13:10:28.754Z,5.57
2017-06-14T13:12:56.435Z,6.03
2017-06-14T13:15:24.314Z,8.63
2017-06-14T13:17:52.260Z,11.20
2017-06-14T13:20:20.037Z,7.60
2017-06-14T13:22:47.688Z,5.43
2017-06-14T13:25:15.372Z,5.23
2017-06-14T13:27:43.108Z,7.03
2017-06-14T13:30:10.974Z,8.50
2017-06-14T13:32:39.047Z,7.00
2017-06-14T13:35:06.737Z,6.50
2017-06-14T13:37:35.394Z,6.37
2017-06-14T13:40:03.261Z,5.17
2017-06-14T13:42:31.048Z,6.80
2017-06-14T13:44:58.739Z,5.60
2017-06-14T13:47:26.811Z,5.43
2017-06-14T13:49:54.645Z,5.70
2017-06-14T13:52:22.750Z,6.43
2017-06-14T13:54:50.461Z,5.87
2017-06-14T13:57:18.244Z,5.97
2017-06-14T13:59:45.904Z,5.80
2017-06-14T14:02:13.859Z,5.57
2017-06-14T14:04:41.647Z,6.73
2017-06-14T14:07:09.508Z,10.20
2017-06-14T14:09:37.148Z,6.10
2017-06-14T14:12:05.016Z,6.87
2017-06-14T14:14:33.348Z,5.90
2017-06-14T14:17:01.076Z,6.33
2017-06-14T14:19:28.741Z,5.53
2017-06-14T14:21:56.687Z,5.53
2017-06-14T14:24:24.475Z,5.43
2017-06-14T14:26:53.035Z,8.23
2017-06-14T14:29:20.890Z,8.30
2017-06-14T14:31:49.588Z,6.00
2017-06-14T14:34:17.373Z,7.40
2017-06-14T14:36:45.014Z,6.20
2017-06-14T14:39:13.393Z,10.00
2017-06-14T14:41:41.179Z,6.60
2017-06-14T14:44:09.044Z,13.43
2017-06-14T14:46:36.703Z,7.50
2017-06-14T14:49:04.576Z,5.80
2017-06-14T14:51:32.210Z,6.90
2017-06-14T14:54:00.697Z,5.80
2017-06-14T14:56:28.568Z,5.47
2017-06-14T14:58:56.460Z,7.67
2017-06-14T15:01:25.013Z,6.27
2017-06-14T15:03:53.357Z,5.80
2017-06-14T15:06:21.048Z,5.67
2017-06-14T15:08:48.837Z,9.40
2017-06-14T15:11:16.787Z,6.20
2017-06-14T15:13:44.799Z,7.23
2017-06-14T15:16:12.644Z,7.40
2017-06-14T15:18:40.416Z,6.67
2017-06-14T15:21:08.171Z,9.33
2017-06-14T15:23:35.915Z,7.43
2017-06-14T15:26:03.699Z,5.50
2017-06-14T15:28:31.916Z,7.30
2017-06-14T15:30:59.723Z,9.17
2017-06-14T15:33:28.050Z,5.57
2017-06-14T15:35:55.780Z,5.77
2017-06-14T15:38:23.515Z,5.10
2017-06-14T15:40:51.309Z,5.90
2017-06-14T15:43:19.037Z,11.60
2017-06-14T15:45:47.617Z,9.63
2017-06-14T15:48:15.606Z,6.20
2017-06-14T15:50:43.833Z,6.53
2017-06-14T15:53:11.664Z,6.57
2017-06-14T15:55:39.771Z,6.27
2017-06-14T15:58:07.687Z,6.70
2017-06-14T16:00:36.068Z,6.57
2017-06-14T16:03:04.580Z,5.50
2017-06-14T16:05:33.321Z,6.70
2017-06-14T16:08:01.019Z,6.07
2017-06-14T16:10:28.967Z,10.77
2017-06-14T16:12:56.833Z,7.83
2017-06-14T16:15:24.618Z,7.03
2017-06-14T16:17:53.795Z,11.13
2017-06-14T16:20:23.095Z,22.20
2017-06-14T16:22:52.600Z,7.07
2017-06-14T16:25:21.722Z,5.83
2017-06-14T16:27:51.610Z,6.80
2017-06-14T16:30:21.460Z,6.03
2017-06-14T16:32:50.953Z,5.27
2017-06-14T16:35:20.125Z,6.10
2017-06-14T16:37:49.630Z,5.80
2017-06-14T16:40:18.716Z,6.10
2017-06-14T16:42:48.687Z,10.10
2017-06-14T16:45:18.555Z,6.17
2017-06-14T16:47:47.857Z,9.57
2017-06-14T16:50:17.083Z,5.93
2017-06-14T16:52:46.655Z,5.93
2017-06-14T16:55:15.887Z,5.80
2017-06-14T16:57:45.160Z,9.30
2017-06-14T17:00:14.763Z,5.17
2017-06-14T17:02:44.155Z,7.83
2017-06-14T17:05:13.676Z,13.00
2017-06-14T17:07:42.770Z,9.20
2017-06-14T17:10:29.243Z,7.57
2017-06-14T17:12:58.365Z,14.10
2017-06-14T17:15:28.694Z,8.97
2017-06-14T17:17:58.023Z,7.00
2017-06-14T17:20:27.811Z,5.50
2017-06-14T17:22:56.851Z,9.00
2017-06-14T17:25:25.880Z,6.63
2017-06-14T17:27:55.783Z,7.83
2017-06-14T17:30:24.836Z,12.13
2017-06-14T17:32:54.207Z,6.93
2017-06-14T17:35:23.332Z,5.90
2017-06-14T17:37:52.630Z,6.30
2017-06-14T17:40:21.794Z,12.13
2017-06-14T17:42:51.446Z,6.87
2017-06-14T17:45:20.708Z,17.30
2017-06-14T17:47:50.039Z,17.13
2017-06-14T17:50:19.309Z,12.80
2017-06-14T17:52:48.644Z,13.60
2017-06-14T17:55:18.049Z,8.23
2017-06-14T17:57:47.594Z,8.63
2017-06-14T18:00:17.187Z,4.83
2017-06-14T18:02:46.455Z,10.20
2017-06-14T18:05:16.339Z,9.10
2017-06-14T18:07:45.639Z,6.40
2017-06-14T18:10:15.459Z,5.37
2017-06-14T18:12:44.932Z,5.57
2017-06-14T18:15:15.077Z,5.20
2017-06-14T18:17:44.395Z,6.83
2017-06-14T18:20:14.488Z,5.17
2017-06-14T18:22:43.798Z,7.20
2017-06-14T18:27:51.794Z,6.90
2017-06-14T18:30:21.150Z,5.93
2017-06-14T18:32:50.234Z,6.10
2017-06-14T18:35:19.924Z,6.37
2017-06-14T18:37:49.050Z,5.23
2017-06-14T18:40:18.664Z,5.63
2017-06-14T18:42:47.860Z,12.50
2017-06-14T18:45:17.591Z,7.63
2017-06-14T18:47:46.951Z,6.47
2017-06-14T18:50:16.648Z,8.20
2017-06-14T18:52:46.153Z,5.63
2017-06-14T18:55:15.253Z,5.43
2017-06-14T18:57:44.580Z,9.83
2017-06-14T19:00:13.571Z,6.83
2017-06-14T19:02:43.047Z,8.07
2017-06-14T19:05:12.148Z,10.83
2017-06-14T19:07:42.196Z,6.17
2017-06-14T19:10:11.564Z,6.10
2017-06-14T19:12:40.691Z,6.43
2017-06-14T19:15:10.530Z,6.53
2017-06-14T19:17:39.566Z,8.03
2017-06-14T19:20:08.591Z,8.00
2017-06-14T19:22:53.663Z,6.13
2017-06-14T19:25:22.751Z,7.80
2017-06-14T19:27:52.673Z,8.10
2017-06-14T19:30:21.975Z,10.73
2017-06-14T19:32:51.171Z,6.83
2017-06-14T19:35:20.645Z,7.80
2017-06-14T19:37:49.771Z,7.10
2017-06-14T19:40:18.883Z,6.40
2017-06-14T19:42:48.167Z,7.20
2017-06-14T19:45:17.291Z,9.10
2017-06-14T19:47:46.531Z,7.53
2017-06-14T19:50:16.067Z,6.20
2017-06-14T19:52:45.368Z,7.73
2017-06-14T19:55:15.447Z,6.37
2017-06-14T19:57:45.322Z,7.87
2017-06-14T20:00:14.672Z,7.23
2017-06-14T20:02:44.176Z,6.97
2017-06-14T20:05:21.734Z,7.80
2017-06-14T20:07:52.639Z,14.50
2017-06-14T20:10:22.047Z,12.63
2017-06-14T20:12:51.234Z,8.43
2017-06-14T20:15:20.508Z,12.37
2017-06-14T20:17:50.015Z,11.50
2017-06-14T20:20:19.519Z,15.47
2017-06-14T20:22:48.960Z,34.63
2017-06-14T20:25:18.413Z,18.80
2017-06-14T20:27:47.655Z,24.10
2017-06-14T20:30:16.752Z,23.43
2017-06-14T20:32:45.816Z,19.53
2017-06-14T20:35:15.940Z,18.97
2017-06-14T20:37:44.919Z,19.23
2017-06-14T20:40:14.229Z,10.10
2017-06-14T20:42:43.356Z,8.23
2017-06-14T20:45:12.451Z,8.47
2017-06-14T20:47:42.015Z,8.77
2017-06-14T20:50:11.224Z,10.17
2017-06-14T20:52:40.349Z,9.23
2017-06-14T20:55:09.435Z,7.10
2017-06-14T20:57:38.439Z,10.07
2017-06-14T21:00:07.709Z,8.23
2017-06-14T21:02:37.275Z,7.43
2017-06-14T21:05:06.247Z,7.50
2017-06-14T21:07:35.279Z,9.50
2017-06-14T21:10:24.795Z,7.97
2017-06-14T21:12:54.107Z,6.90
2017-06-14T21:15:24.019Z,8.13
2017-06-14T21:17:53.473Z,10.00
2017-06-14T21:20:22.623Z,7.67
2017-06-14T21:22:51.893Z,9.70
2017-06-14T21:25:21.695Z,10.80
2017-06-14T21:27:51.097Z,8.23
2017-06-14T21:30:20.078Z,11.33
2017-06-14T21:32:49.690Z,12.33
2017-06-14T21:35:19.008Z,10.20
2017-06-14T21:37:48.309Z,8.00
2017-06-14T21:40:17.612Z,9.10
2017-06-14T21:42:46.703Z,9.07
2017-06-14T21:45:16.005Z,7.67
2017-06-14T21:47:45.763Z,11.30
2017-06-14T21:50:15.015Z,7.67
2017-06-14T21:52:44.139Z,7.83
2017-06-14T21:55:14.025Z,9.23
2017-06-14T21:57:43.938Z,12.40
2017-06-14T22:00:13.752Z,10.10
2017-06-14T22:02:43.611Z,7.23
2017-06-14T22:05:13.605Z,7.53
2017-06-14T22:07:42.708Z,7.30
2017-06-14T22:10:12.092Z,8.90
2017-06-14T22:12:41.277Z,10.13
2017-06-14T22:15:10.755Z,8.20
2017-06-14T22:17:39.734Z,7.10
2017-06-14T22:20:09.091Z,8.43
2017-06-14T22:22:38.861Z,12.10
2017-06-14T22:25:08.380Z,7.93
2017-06-14T22:27:37.351Z,8.90
2017-06-14T22:30:06.414Z,10.03
2017-06-14T22:32:35.909Z,9.30
2017-06-14T22:35:05.185Z,8.43
2017-06-14T22:37:34.484Z,7.73
2017-06-14T22:40:03.684Z,10.90
2017-06-14T22:42:33.163Z,8.20
2017-06-14T22:45:02.490Z,7.20
2017-06-14T22:47:31.715Z,7.93
2017-06-14T22:50:00.812Z,7.93
2017-06-14T22:52:29.907Z,7.53
2017-06-14T22:54:59.355Z,9.07
2017-06-14T22:57:28.506Z,7.30
2017-06-14T22:59:57.573Z,7.10
2017-06-14T23:02:26.699Z,7.20
2017-06-14T23:04:56.704Z,6.60
2017-06-14T23:07:25.708Z,7.90
2017-06-14T23:09:55.357Z,9.30
2017-06-14T23:12:24.515Z,7.00
2017-06-14T23:14:53.784Z,8.53
2017-06-14T23:17:22.910Z,8.73
2017-06-14T23:19:52.107Z,11.43
2017-06-14T23:22:21.614Z,10.90
2017-06-14T23:24:50.986Z,7.70
2017-06-14T23:27:21.123Z,9.37
2017-06-14T23:29:50.183Z,7.13
2017-06-14T23:32:19.795Z,7.17
2017-06-14T23:34:49.211Z,7.73
2017-06-14T23:37:18.423Z,7.27
2017-06-14T23:39:47.766Z,8.13
2017-06-14T23:42:16.941Z,7.50
2017-06-14T23:44:46.206Z,9.70
2017-06-14T23:47:15.331Z,9.33
2017-06-14T23:49:45.417Z,7.83
2017-06-14T23:52:15.223Z,10.90
2017-06-14T23:54:44.210Z,9.73
2017-06-14T23:57:13.527Z,11.60
2017-06-14T23:59:42.827Z,8.10
